This is the latest recevied weather packets stored in our database for station/object DM3FAM-10. If no packets are shown the sender has not sent any weather packets the latest 10 day(s).
| Time | Temp. | Humidity | Pressure | Rain* | Wind** | Luminosity | Snow |
|---|---|---|---|---|---|---|---|
| 1777620398 | 10.56° C | 47% | 975.4 hPa | - | - | - | - |
| 1777619497 | 9.44° C | 49% | 975.3 hPa | - | - | - | - |
| 1777618597 | 8.33° C | 56% | 975.3 hPa | - | - | - | - |
| 1777617697 | 7.22° C | 76% | 975.2 hPa | - | - | - | - |
| 1777616797 | 5.56° C | 83% | 975.2 hPa | - | - | - | - |
| 1777615897 | 3.89° C | 85% | 975.2 hPa | - | - | - | - |
| 1777614997 | 3.33° C | 86% | 975.1 hPa | - | - | - | - |
| 1777614097 | 3.33° C | 80% | 975.1 hPa | - | - | - | - |
| 1777613197 | 2.78° C | 83% | 975.1 hPa | - | - | - | - |
| 1777612297 | 2.22° C | 84% | 975.1 hPa | - | - | - | - |
| 1777611397 | 1.67° C | 81% | 975.2 hPa | - | - | - | - |
| 1777610497 | 1.67° C | 81% | 975.1 hPa | - | - | - | - |
| 1777609597 | 1.67° C | 78% | 975.1 hPa | - | - | - | - |
| 1777608697 | 1.11° C | 80% | 975.1 hPa | - | - | - | - |
| 1777607797 | 1.67° C | 73% | 975.1 hPa | - | - | - | - |
| 1777606897 | 1.67° C | 74% | 975 hPa | - | - | - | - |
| 1777605997 | 1.67° C | 71% | 975.1 hPa | - | - | - | - |
| 1777605096 | 2.22° C | 65% | 975 hPa | - | - | - | - |
| 1777604196 | 2.22° C | 64% | 975.1 hPa | - | - | - | - |
| 1777603296 | 3.33° C | 58% | 975.1 hPa | - | - | - | - |
| 1777600596 | 3.89° C | 51% | 975 hPa | - | - | - | - |
| 1777599696 | 3.33° C | 58% | 974.9 hPa | - | - | - | - |
| 1777598796 | 3.33° C | 53% | 974.8 hPa | - | - | - | - |
| 1777597896 | 3.89° C | 51% | 974.8 hPa | - | - | - | - |
| 1777596996 | 3.33° C | 55% | 974.9 hPa | - | - | - | - |
* Rain since midnight (hover to see other rain measurements)
** Current wind speed in m/s (hover to see current wind gust speed)